Time;durP1;ratioP1;P1;durP2;ratioP2;P2;SDS_P1;SDS_P2;PMS_P1;PMS_P2;Temp;Humidity;BMP_temperature;BMP_pressure;BME280_temperature;BME280_humidity;BME280_pressure;Samples;Min_cycle;Max_cycle;Signal;HPM_P1;HPM_P2
2023/03/07 00:00:21;;;;;;;;;;;;;;;3.81;100.00;99850.19;5021626;28;19925;-61
2023/03/07 00:02:49;;;;;;;;;;;;;;;3.78;100.00;99862.81;5022594;28;20016;-61
2023/03/07 00:05:14;;;;;;;;;;;;;;;3.76;100.00;99862.97;5025727;28;20290;-61
2023/03/07 00:07:39;;;;;;;;;;;;;;;3.74;100.00;99867.50;5022489;28;19920;-61
2023/03/07 00:10:05;;;;;;;;;;;;;;;3.71;100.00;99867.81;5020572;28;20056;-61
2023/03/07 00:12:30;;;;;;;;;;;;;;;3.69;100.00;99859.25;5018372;28;19914;-61
2023/03/07 00:14:55;;;;;;;;;;;;;;;3.66;100.00;99851.69;5020076;28;19925;-61
2023/03/07 00:17:20;;;;;;;;;;;;;;;3.65;100.00;99850.03;5022516;28;20301;-62
2023/03/07 00:19:46;;;;;;;;;;;;;;;3.61;100.00;99849.53;5023351;28;19928;-61
2023/03/07 00:22:11;;;;;;;;;;;;;;;3.60;100.00;99865.44;5026167;28;20328;-61
2023/03/07 00:24:36;;;;;;;;;;;;;;;3.56;100.00;99857.03;5015269;28;19922;-61
2023/03/07 00:27:01;;;;;;;;;;;;;;;3.55;100.00;99851.94;5013180;28;19913;-61
2023/03/07 00:29:27;;;;;;;;;;;;;;;3.52;100.00;99847.81;5022009;28;20501;-61
2023/03/07 00:31:52;;;;;;;;;;;;;;;3.50;100.00;99847.13;5022634;28;19926;-61
2023/03/07 00:34:17;;;;;;;;;;;;;;;3.50;100.00;99846.31;5015962;28;20496;-62
2023/03/07 00:36:42;;;;;;;;;;;;;;;3.47;100.00;99852.69;5023182;28;19924;-61
2023/03/07 00:39:08;;;;;;;;;;;;;;;3.47;100.00;99850.06;5025658;28;20011;-61
2023/03/07 00:41:33;;;;;;;;;;;;;;;3.43;100.00;99841.63;5019426;28;19921;-61
2023/03/07 00:43:58;;;;;;;;;;;;;;;3.41;100.00;99837.50;5023251;28;19925;-61
2023/03/07 00:46:24;;;;;;;;;;;;;;;3.39;100.00;99836.84;5017166;28;20473;-61
2023/03/07 00:48:50;;;;;;;;;;;;;;;3.37;100.00;99844.84;5026624;28;19976;-61
2023/03/07 00:51:16;;;;;;;;;;;;;;;3.36;100.00;99840.59;5025691;28;19913;-61
2023/03/07 00:53:41;;;;;;;;;;;;;;;3.36;100.00;99840.59;5019181;28;19917;-61
2023/03/07 00:56:10;;;;;;;;;;;;;;;3.35;100.00;99833.69;5011319;28;19976;-61
2023/03/07 00:58:36;;;;;;;;;;;;;;;3.35;100.00;99840.75;5024659;28;19940;-61
2023/03/07 01:01:02;;;;;;;;;;;;;;;3.36;100.00;99824.84;5013886;28;20040;-61
2023/03/07 01:03:27;;;;;;;;;;;;;;;3.34;100.00;99825.97;5022010;28;20372;-61
2023/03/07 01:05:53;;;;;;;;;;;;;;;3.35;100.00;99838.13;5016883;28;20012;-61
2023/03/07 01:08:19;;;;;;;;;;;;;;;3.35;100.00;99825.81;5022349;28;20008;-61
2023/03/07 01:10:45;;;;;;;;;;;;;;;3.35;100.00;99823.19;5019851;28;19922;-61
2023/03/07 01:13:10;;;;;;;;;;;;;;;3.38;100.00;99830.75;5012414;28;19932;-60
2023/03/07 01:15:36;;;;;;;;;;;;;;;3.41;100.00;99830.47;5022116;28;19917;-61
2023/03/07 01:18:02;;;;;;;;;;;;;;;3.40;100.00;99820.13;5027190;28;19918;-61
2023/03/07 01:20:29;;;;;;;;;;;;;;;3.37;100.00;99816.00;5028366;28;20388;-61
2023/03/07 01:22:54;;;;;;;;;;;;;;;3.36;100.00;99810.91;5026331;28;20513;-60
2023/03/07 01:25:19;;;;;;;;;;;;;;;3.38;100.00;99819.44;5024769;28;19939;-61
2023/03/07 01:27:45;;;;;;;;;;;;;;;3.39;100.00;99810.59;5016999;28;19921;-61
2023/03/07 01:30:10;;;;;;;;;;;;;;;3.41;100.00;99811.25;5013732;28;19960;-61
2023/03/07 01:32:35;;;;;;;;;;;;;;;3.43;100.00;99801.44;5022844;28;19959;-61
2023/03/07 01:35:00;;;;;;;;;;;;;;;3.45;100.00;99812.63;5028304;28;20363;-61
2023/03/07 01:37:26;;;;;;;;;;;;;;;3.48;100.00;99806.25;5019336;28;19925;-61
2023/03/07 01:39:51;;;;;;;;;;;;;;;3.50;100.00;99799.06;5020781;28;20382;-61
2023/03/07 01:42:17;;;;;;;;;;;;;;;3.51;100.00;99801.53;5021486;28;19913;-61
2023/03/07 01:45:03;;;;;;;;;;;;;;;3.53;100.00;99811.88;5027924;28;19919;-61
2023/03/07 01:47:28;;;;;;;;;;;;;;;3.53;100.00;99802.22;5022496;28;20386;-61
2023/03/07 01:49:54;;;;;;;;;;;;;;;3.53;100.00;99794.34;5027179;28;19986;-61
2023/03/07 01:52:20;;;;;;;;;;;;;;;3.54;100.00;99790.72;5017882;28;19924;-61
2023/03/07 01:54:47;;;;;;;;;;;;;;;3.57;100.00;99786.97;5028269;28;19913;-61
2023/03/07 01:57:13;;;;;;;;;;;;;;;3.59;100.00;99787.66;5025423;28;19921;-61
2023/03/07 01:59:45;;;;;;;;;;;;;;;3.61;100.00;99785.69;5028272;28;19928;-61
2023/03/07 02:02:13;;;;;;;;;;;;;;;3.62;100.00;99782.91;5022832;28;19948;-61
2023/03/07 02:04:43;;;;;;;;;;;;;;;3.62;100.00;99782.09;5021139;28;19917;-61
2023/03/07 02:07:09;;;;;;;;;;;;;;;3.62;100.00;99774.22;5020133;28;19917;-61
2023/03/07 02:09:34;;;;;;;;;;;;;;;3.61;100.00;99777.81;5018264;28;19921;-61
2023/03/07 02:12:00;;;;;;;;;;;;;;;3.62;100.00;99787.34;5025613;28;20289;-61
2023/03/07 02:14:25;;;;;;;;;;;;;;;3.62;100.00;99782.91;5014901;28;20008;-61
2023/03/07 02:16:51;;;;;;;;;;;;;;;3.61;100.00;99769.94;5026894;28;19917;-61
2023/03/07 02:19:48;;;;;;;;;;;;;;;3.61;100.00;99767.31;5022883;28;20328;-61
2023/03/07 02:22:16;;;;;;;;;;;;;;;3.69;100.00;99764.75;4995826;28;19971;-61
2023/03/07 02:24:49;;;;;;;;;;;;;;;3.63;100.00;99760.13;5017652;28;19917;-62
2023/03/07 02:27:15;;;;;;;;;;;;;;;3.65;100.00;99750.28;5012703;28;20418;-61
2023/03/07 02:29:40;;;;;;;;;;;;;;;3.64;100.00;99754.72;5025714;28;19917;-61
2023/03/07 02:32:06;;;;;;;;;;;;;;;3.63;100.00;99753.06;5023251;28;19959;-61
2023/03/07 02:34:31;;;;;;;;;;;;;;;3.64;100.00;99753.88;5017934;28;19920;-62
2023/03/07 02:37:15;;;;;;;;;;;;;;;3.63;100.00;99737.31;5021065;28;19918;-61
2023/03/07 02:39:41;;;;;;;;;;;;;;;3.61;100.00;99739.28;5016482;28;19914;-61
2023/03/07 02:42:08;;;;;;;;;;;;;;;3.62;100.00;99738.28;5021937;28;19916;-61
2023/03/07 02:44:33;;;;;;;;;;;;;;;3.60;100.00;99732.38;5014600;28;19918;-61
2023/03/07 02:46:59;;;;;;;;;;;;;;;3.61;100.00;99733.19;5021191;28;20370;-61
2023/03/07 02:49:24;;;;;;;;;;;;;;;3.61;100.00;99736.66;5017843;28;19921;-61
2023/03/07 02:51:49;;;;;;;;;;;;;;;3.61;100.00;99744.53;5015405;28;19952;-61
2023/03/07 02:54:14;;;;;;;;;;;;;;;3.61;100.00;99741.06;5024326;28;19914;-61
2023/03/07 02:56:40;;;;;;;;;;;;;;;3.60;100.00;99736.81;5020092;28;19975;-61
2023/03/07 02:59:05;;;;;;;;;;;;;;;3.61;100.00;99741.06;5019866;28;19917;-61
2023/03/07 03:01:30;;;;;;;;;;;;;;;3.59;100.00;99735.16;5020105;28;20477;-61
2023/03/07 03:03:55;;;;;;;;;;;;;;;3.57;100.00;99730.06;5018961;28;19924;-60
2023/03/07 03:06:21;;;;;;;;;;;;;;;3.58;100.00;99728.25;5020445;28;19924;-61
2023/03/07 03:08:46;;;;;;;;;;;;;;;3.56;100.00;99731.03;5022289;28;19914;-61
2023/03/07 03:11:11;;;;;;;;;;;;;;;3.56;100.00;99732.84;5021443;28;20409;-61
2023/03/07 03:13:36;;;;;;;;;;;;;;;3.55;100.00;99736.44;5017117;28;19925;-62
2023/03/07 03:16:02;;;;;;;;;;;;;;;3.53;100.00;99735.75;5020291;28;19913;-61
2023/03/07 03:18:28;;;;;;;;;;;;;;;3.51;100.00;99738.53;5027822;28;20286;-61
2023/03/07 03:20:53;;;;;;;;;;;;;;;3.50;100.00;99736.06;5017429;28;19921;-61
2023/03/07 03:23:18;;;;;;;;;;;;;;;3.49;100.00;99723.94;5012341;28;20342;-62
2023/03/07 03:25:44;;;;;;;;;;;;;;;3.47;100.00;99725.84;5025881;28;19924;-61
2023/03/07 03:28:09;;;;;;;;;;;;;;;3.47;100.00;99726.72;5030897;28;19917;-61
2023/03/07 03:30:34;;;;;;;;;;;;;;;3.46;100.00;99725.03;5022069;28;20371;-61
2023/03/07 03:33:00;;;;;;;;;;;;;;;3.47;100.00;99724.09;5027095;28;19917;-61
2023/03/07 03:35:25;;;;;;;;;;;;;;;3.47;100.00;99731.09;5028876;28;20397;-61
2023/03/07 03:37:50;;;;;;;;;;;;;;;3.45;100.00;99727.81;5031343;28;20454;-61
2023/03/07 03:40:16;;;;;;;;;;;;;;;3.47;100.00;99720.59;5029918;28;19917;-61
2023/03/07 03:42:42;;;;;;;;;;;;;;;3.43;100.00;99710.41;5023783;28;20529;-62
2023/03/07 03:45:08;;;;;;;;;;;;;;;3.43;100.00;99709.59;5012397;28;20004;-62
2023/03/07 03:47:34;;;;;;;;;;;;;;;3.42;100.00;99702.69;5026172;28;19917;-61
2023/03/07 03:49:59;;;;;;;;;;;;;;;3.40;100.00;99704.66;5022151;28;19964;-61
2023/03/07 03:52:24;;;;;;;;;;;;;;;3.40;100.00;99702.03;5019684;28;21422;-61
2023/03/07 03:54:49;;;;;;;;;;;;;;;3.39;100.00;99697.75;5028235;28;19917;-61
2023/03/07 03:57:16;;;;;;;;;;;;;;;3.39;100.00;99700.38;5025122;28;20595;-62
2023/03/07 03:59:42;;;;;;;;;;;;;;;3.40;100.00;99691.53;5023606;28;19917;-62
2023/03/07 04:02:07;;;;;;;;;;;;;;;3.38;100.00;99696.94;5017377;28;20368;-60
2023/03/07 04:04:32;;;;;;;;;;;;;;;3.38;100.00;99686.44;5020810;28;20745;-62
2023/03/07 04:07:06;;;;;;;;;;;;;;;3.39;100.00;99680.22;5021657;28;20016;-61
2023/03/07 04:09:32;;;;;;;;;;;;;;;3.38;100.00;99686.44;5020784;28;19916;-61
2023/03/07 04:11:57;;;;;;;;;;;;;;;3.37;100.00;99679.53;5026050;28;20377;-61
2023/03/07 04:14:22;;;;;;;;;;;;;;;3.37;100.00;99676.91;5018851;28;19917;-62
2023/03/07 04:16:47;;;;;;;;;;;;;;;3.36;100.00;99672.66;5019132;28;19913;-61
2023/03/07 04:19:12;;;;;;;;;;;;;;;3.36;100.00;99667.41;5025582;28;19947;-61
2023/03/07 04:21:39;;;;;;;;;;;;;;;3.35;100.00;99657.88;5017803;28;19925;-61
2023/03/07 04:24:05;;;;;;;;;;;;;;;3.36;100.00;99662.16;5018427;28;19921;-61
2023/03/07 04:26:30;;;;;;;;;;;;;;;3.35;100.00;99660.50;5020880;28;19971;-62
2023/03/07 04:28:56;;;;;;;;;;;;;;;3.35;100.00;99659.69;5018579;28;19917;-61
2023/03/07 04:31:22;;;;;;;;;;;;;;;3.33;100.00;99657.22;5016730;28;20412;-62
2023/03/07 04:33:47;;;;;;;;;;;;;;;3.31;100.00;99648.66;5023746;28;19924;-61
2023/03/07 04:36:15;;;;;;;;;;;;;;;3.31;100.00;99645.22;5024409;28;19917;-61
2023/03/07 04:38:41;;;;;;;;;;;;;;;3.30;100.00;99660.16;5024717;28;19924;-61
2023/03/07 04:41:06;;;;;;;;;;;;;;;3.28;100.00;99646.34;5019095;28;20401;-61
2023/03/07 04:43:31;;;;;;;;;;;;;;;3.27;100.00;99651.75;5021375;28;19913;-61
2023/03/07 04:45:57;;;;;;;;;;;;;;;3.26;100.00;99640.44;5023701;28;19917;-61
2023/03/07 04:48:22;;;;;;;;;;;;;;;3.25;100.00;99646.66;5024620;28;19933;-62
2023/03/07 04:50:48;;;;;;;;;;;;;;;3.24;100.00;99639.78;5016873;28;19917;-61
2023/03/07 04:53:13;;;;;;;;;;;;;;;3.25;100.00;99648.47;5019698;28;20028;-61
2023/03/07 04:55:38;;;;;;;;;;;;;;;3.22;100.00;99639.09;5022105;28;19965;-61
2023/03/07 04:58:03;;;;;;;;;;;;;;;3.22;100.00;99633.88;5020331;28;19928;-61
2023/03/07 05:00:29;;;;;;;;;;;;;;;3.23;100.00;99632.06;5015826;28;19925;-62
2023/03/07 05:02:57;;;;;;;;;;;;;;;3.22;100.00;99639.09;5018561;28;19928;-60
2023/03/07 05:05:22;;;;;;;;;;;;;;;3.23;100.00;99637.31;5018711;28;19921;-61
2023/03/07 05:07:47;;;;;;;;;;;;;;;3.23;100.00;99639.94;5022218;28;19924;-61
2023/03/07 05:10:13;;;;;;;;;;;;;;;3.24;100.00;99647.66;5019768;28;19979;-61
2023/03/07 05:12:38;;;;;;;;;;;;;;;3.25;100.00;99638.78;5014271;28;19929;-61
2023/03/07 05:15:03;;;;;;;;;;;;;;;3.27;100.00;99636.03;5013187;28;19917;-60
2023/03/07 05:17:29;;;;;;;;;;;;;;;3.26;100.00;99640.44;5023247;28;19921;-61
2023/03/07 05:19:54;;;;;;;;;;;;;;;3.24;100.00;99634.53;5013788;28;19921;-61
2023/03/07 05:22:19;;;;;;;;;;;;;;;3.25;100.00;99637.97;5017872;28;19921;-61
2023/03/07 05:24:45;;;;;;;;;;;;;;;3.24;100.00;99639.78;5024250;28;19990;-61
2023/03/07 05:27:10;;;;;;;;;;;;;;;3.27;100.00;99636.03;5016864;28;19925;-61
2023/03/07 05:29:35;;;;;;;;;;;;;;;3.28;100.00;99642.91;5026788;28;19913;-61
2023/03/07 05:32:01;;;;;;;;;;;;;;;3.27;100.00;99631.59;5024056;28;19917;-61
2023/03/07 05:34:26;;;;;;;;;;;;;;;3.28;100.00;99628.00;5015048;28;19921;-61
2023/03/07 05:36:51;;;;;;;;;;;;;;;3.26;100.00;99629.94;5010472;28;19914;-61
2023/03/07 05:39:17;;;;;;;;;;;;;;;3.24;100.00;99637.16;5019234;28;20004;-61
2023/03/07 05:41:42;;;;;;;;;;;;;;;3.24;100.00;99626.66;5016087;28;20008;-61
2023/03/07 05:44:07;;;;;;;;;;;;;;;3.28;100.00;99627.16;5017137;28;19917;-61
2023/03/07 05:46:32;;;;;;;;;;;;;;;3.27;100.00;99631.59;5021050;28;19948;-61
2023/03/07 05:48:57;;;;;;;;;;;;;;;3.25;100.00;99630.94;5022378;28;19918;-61
2023/03/07 05:51:22;;;;;;;;;;;;;;;3.29;100.00;99623.56;5021157;28;19921;-61
2023/03/07 05:53:48;;;;;;;;;;;;;;;3.26;100.00;99621.25;5018351;28;19917;-62
2023/03/07 05:56:13;;;;;;;;;;;;;;;3.24;100.00;99624.03;5016740;28;20011;-61
2023/03/07 05:58:38;;;;;;;;;;;;;;;3.21;100.00;99621.72;5028343;28;19957;-61
2023/03/07 06:01:04;;;;;;;;;;;;;;;3.21;100.00;99623.53;5020538;28;20448;-61
2023/03/07 06:03:29;;;;;;;;;;;;;;;3.20;100.00;99627.94;5011573;28;19918;-61
2023/03/07 06:05:54;;;;;;;;;;;;;;;3.20;100.00;99635.00;5014923;28;19925;-61
2023/03/07 06:08:19;;;;;;;;;;;;;;;3.15;100.00;99635.41;5026462;28;19920;-61
2023/03/07 06:10:48;;;;;;;;;;;;;;;3.09;100.00;99629.00;5013809;28;20204;-61
2023/03/07 06:13:15;;;;;;;;;;;;;;;3.06;100.00;99631.91;5020251;28;19917;-61
2023/03/07 06:15:40;;;;;;;;;;;;;;;3.07;100.00;99630.13;5022246;28;20322;-62
2023/03/07 06:18:05;;;;;;;;;;;;;;;3.01;100.00;99631.56;5019707;28;19926;-61
2023/03/07 06:20:30;;;;;;;;;;;;;;;2.98;100.00;99629.25;5009573;28;19922;-61
2023/03/07 06:22:55;;;;;;;;;;;;;;;2.95;100.00;99632.16;5020180;28;19924;-61
2023/03/07 06:25:21;;;;;;;;;;;;;;;2.96;100.00;99638.25;5034700;28;19921;-61
2023/03/07 06:27:46;;;;;;;;;;;;;;;2.90;100.00;99628.38;5027467;28;19923;-61
2023/03/07 06:30:11;;;;;;;;;;;;;;;2.89;100.00;99634.56;5019784;28;19917;-61
2023/03/07 06:32:36;;;;;;;;;;;;;;;2.91;100.00;99641.31;5020699;28;20016;-62
2023/03/07 06:35:02;;;;;;;;;;;;;;;2.84;100.00;99635.00;5022633;28;20401;-61
2023/03/07 06:37:27;;;;;;;;;;;;;;;2.85;100.00;99639.28;5021442;28;19922;-61
2023/03/07 06:39:52;;;;;;;;;;;;;;;2.84;100.00;99631.56;5025159;28;19921;-61
2023/03/07 06:42:18;;;;;;;;;;;;;;;2.74;100.00;99635.09;5022021;28;20366;-61
2023/03/07 06:44:43;;;;;;;;;;;;;;;2.79;100.00;99640.72;5025771;28;19924;-61
2023/03/07 06:47:08;;;;;;;;;;;;;;;2.67;100.00;99630.59;5021344;28;19916;-61
2023/03/07 06:49:33;;;;;;;;;;;;;;;2.67;100.00;99622.75;5018225;28;20402;-61
2023/03/07 06:52:00;;;;;;;;;;;;;;;2.64;100.00;99625.66;5022070;28;21215;-61
2023/03/07 06:54:25;;;;;;;;;;;;;;;2.61;100.00;99629.41;5019354;28;19925;-61
2023/03/07 06:56:50;;;;;;;;;;;;;;;2.59;100.00;99622.66;5023945;28;19960;-61
2023/03/07 06:59:16;;;;;;;;;;;;;;;2.60;100.00;99627.78;5027059;28;19917;-61
2023/03/07 07:01:41;;;;;;;;;;;;;;;2.59;100.00;99636.56;5019577;28;19925;-61
2023/03/07 07:04:06;;;;;;;;;;;;;;;2.57;100.00;99633.28;5031031;28;19925;-61
2023/03/07 07:06:31;;;;;;;;;;;;;;;2.54;100.00;99635.38;5018357;28;19961;-61
2023/03/07 07:08:57;;;;;;;;;;;;;;;2.57;100.00;99643.75;5016450;28;19918;-61
2023/03/07 07:11:23;;;;;;;;;;;;;;;2.55;100.00;99645.72;5029044;28;19920;-62
2023/03/07 07:13:49;;;;;;;;;;;;;;;2.57;100.00;99654.25;5030441;28;20007;-61
2023/03/07 07:16:15;;;;;;;;;;;;;;;2.54;100.00;99644.06;5023882;28;19960;-61
2023/03/07 07:18:40;;;;;;;;;;;;;;;2.52;100.00;99653.88;5027913;28;19945;-61
2023/03/07 07:21:05;;;;;;;;;;;;;;;2.52;100.00;99646.00;5021966;28;19925;-61
2023/03/07 07:23:30;;;;;;;;;;;;;;;2.50;100.00;99647.97;5025834;28;19929;-61
2023/03/07 07:25:55;;;;;;;;;;;;;;;2.49;100.00;99641.06;5025252;28;20302;-61
2023/03/07 07:28:21;;;;;;;;;;;;;;;2.49;100.00;99655.00;5029402;28;19913;-61
2023/03/07 07:30:46;;;;;;;;;;;;;;;2.50;100.00;99655.81;5023845;28;19929;-61
2023/03/07 07:33:11;;;;;;;;;;;;;;;2.51;100.00;99661.88;5027179;28;19921;-60
2023/03/07 07:35:38;;;;;;;;;;;;;;;2.52;100.00;99671.38;5019661;28;19925;-61
2023/03/07 07:38:03;;;;;;;;;;;;;;;2.51;100.00;99674.97;5027119;28;19921;-61
2023/03/07 07:40:28;;;;;;;;;;;;;;;2.52;100.00;99681.88;5015442;28;20452;-61
2023/03/07 07:42:53;;;;;;;;;;;;;;;2.48;100.00;99679.53;5022111;28;20274;-61
2023/03/07 07:45:20;;;;;;;;;;;;;;;2.45;100.00;99685.09;5023041;28;19924;-61
2023/03/07 07:47:46;;;;;;;;;;;;;;;2.43;100.00;99684.41;5028744;28;20251;-61
2023/03/07 07:50:13;;;;;;;;;;;;;;;2.43;100.00;99694.88;5021693;28;20401;-61
2023/03/07 07:52:38;;;;;;;;;;;;;;;2.43;100.00;99694.06;5023597;28;19974;-61
2023/03/07 07:55:03;;;;;;;;;;;;;;;2.41;100.00;99693.38;5028829;28;20495;-61
2023/03/07 07:57:28;;;;;;;;;;;;;;;2.38;100.00;99698.94;5016410;28;19933;-61
2023/03/07 07:59:53;;;;;;;;;;;;;;;2.31;100.00;99711.75;5016583;28;19923;-61
2023/03/07 08:02:19;;;;;;;;;;;;;;;2.25;100.00;99712.34;5029398;28;19956;-61
2023/03/07 08:04:46;;;;;;;;;;;;;;;2.21;100.00;99721.47;5018085;28;19917;-61
2023/03/07 08:07:12;;;;;;;;;;;;;;;2.16;100.00;99718.47;5027914;28;19913;-61
2023/03/07 08:09:38;;;;;;;;;;;;;;;2.14;100.00;99721.22;5021189;28;19944;-60
2023/03/07 08:12:03;;;;;;;;;;;;;;;2.03;100.00;99703.09;5029639;28;20538;-61
2023/03/07 08:14:28;;;;;;;;;;;;;;;2.07;100.00;99720.16;5017652;28;19913;-61
2023/03/07 08:16:53;;;;;;;;;;;;;;;2.04;100.00;99712.59;5022251;28;19920;-61
2023/03/07 08:19:19;;;;;;;;;;;;;;;2.02;100.00;99722.34;5029596;28;19921;-61
2023/03/07 08:21:44;;;;;;;;;;;;;;;2.00;100.00;99713.00;5010388;28;19923;-61
2023/03/07 08:24:09;;;;;;;;;;;;;;;2.00;100.00;99728.69;5023135;28;19914;-61
2023/03/07 08:26:34;;;;;;;;;;;;;;;1.98;100.00;99723.63;5018615;28;20458;-60
2023/03/07 08:28:59;;;;;;;;;;;;;;;1.94;100.00;99719.63;5011551;28;19917;-61
2023/03/07 08:31:24;;;;;;;;;;;;;;;1.91;100.00;99729.56;5017344;28;20335;-61
2023/03/07 08:33:50;;;;;;;;;;;;;;;1.85;100.00;99736.19;5028841;28;20330;-61
2023/03/07 08:36:15;;;;;;;;;;;;;;;1.76;100.00;99744.91;5023276;28;19917;-61
2023/03/07 08:38:41;;;;;;;;;;;;;;;1.66;100.00;99742.28;5015736;28;19913;-61
2023/03/07 08:41:07;;;;;;;;;;;;;;;1.58;100.00;99742.19;5021592;28;19917;-61
2023/03/07 08:43:35;;;;;;;;;;;;;;;1.49;100.00;99730.78;5020762;28;19917;-61
2023/03/07 08:46:00;;;;;;;;;;;;;;;1.40;100.00;99730.75;5016633;28;19960;-61
2023/03/07 08:48:26;;;;;;;;;;;;;;;1.34;100.00;99726.09;5021072;28;20517;-61
2023/03/07 08:50:51;;;;;;;;;;;;;;;1.27;100.00;99717.16;5020050;28;19913;-61
2023/03/07 08:53:16;;;;;;;;;;;;;;;1.23;100.00;99724.47;5028925;28;19913;-61
2023/03/07 08:55:44;;;;;;;;;;;;;;;1.19;100.00;99729.13;5022068;28;20005;-61
2023/03/07 08:58:10;;;;;;;;;;;;;;;1.11;100.00;99726.38;5023083;28;19917;-61
2023/03/07 09:00:37;;;;;;;;;;;;;;;1.06;100.00;99725.97;5027129;28;19975;-61
2023/03/07 09:03:03;;;;;;;;;;;;;;;1.02;100.00;99726.38;5014000;28;19953;-61
2023/03/07 09:05:28;;;;;;;;;;;;;;;0.97;100.00;99723.34;5025003;28;19956;-61
2023/03/07 09:07:53;;;;;;;;;;;;;;;0.92;100.00;99732.44;5018336;28;19924;-61
2023/03/07 09:10:19;;;;;;;;;;;;;;;0.89;100.00;99729.25;5028512;28;19920;-61
2023/03/07 09:12:45;;;;;;;;;;;;;;;0.92;100.00;99718.53;5014898;28;19921;-61
2023/03/07 09:15:10;;;;;;;;;;;;;;;0.93;100.00;99728.03;5027452;28;19949;-61
2023/03/07 09:17:35;;;;;;;;;;;;;;;0.95;100.00;99726.09;5021672;28;20367;-61
2023/03/07 09:20:00;;;;;;;;;;;;;;;0.98;100.00;99731.06;5019092;28;19925;-61
2023/03/07 09:22:26;;;;;;;;;;;;;;;1.02;100.00;99735.03;5023078;28;20362;-61
2023/03/07 09:24:51;;;;;;;;;;;;;;;1.03;100.00;99733.25;5020992;28;19920;-61
2023/03/07 09:27:16;;;;;;;;;;;;;;;1.06;100.00;99743.44;5017333;28;20422;-61
2023/03/07 09:29:41;;;;;;;;;;;;;;;1.07;100.00;99739.84;5017382;28;19925;-61
2023/03/07 09:32:06;;;;;;;;;;;;;;;1.08;100.00;99737.09;5016713;28;19924;-61
2023/03/07 09:34:31;;;;;;;;;;;;;;;1.11;100.00;99736.00;5023249;28;19999;-61
2023/03/07 09:36:57;;;;;;;;;;;;;;;1.12;100.00;99745.50;5014614;28;19922;-61
2023/03/07 09:39:22;;;;;;;;;;;;;;;1.16;100.00;99741.66;5021721;28;20568;-61
2023/03/07 09:41:57;;;;;;;;;;;;;;;1.20;100.00;99743.03;5015970;28;19925;-61
2023/03/07 09:44:30;;;;;;;;;;;;;;;1.22;100.00;99741.94;5012010;28;20298;-61
2023/03/07 09:47:09;;;;;;;;;;;;;;;1.26;100.00;99739.03;5017033;28;19928;-61
2023/03/07 09:49:45;;;;;;;;;;;;;;;1.31;100.00;99745.50;5012411;28;19914;-61
2023/03/07 09:52:13;;;;;;;;;;;;;;;1.38;100.00;99746.59;5025766;28;19957;-60
2023/03/07 09:54:45;;;;;;;;;;;;;;;1.38;100.00;99743.97;5016527;28;19918;-61
2023/03/07 09:57:14;;;;;;;;;;;;;;;1.42;100.00;99744.53;5011613;28;19943;-61
2023/03/07 09:59:42;;;;;;;;;;;;;;;1.45;100.00;99739.88;5017183;28;19914;-61
2023/03/07 10:02:14;;;;;;;;;;;;;;;1.47;100.00;99737.94;5017841;28;19921;-61
2023/03/07 10:04:45;;;;;;;;;;;;;;;1.51;100.00;99741.91;5021672;28;20000;-61
2023/03/07 10:07:12;;;;;;;;;;;;;;;1.58;100.00;99738.75;5018767;28;19913;-61
2023/03/07 10:09:37;;;;;;;;;;;;;;;1.62;100.00;99742.72;5027889;28;20437;-62
2023/03/07 10:12:29;;;;;;;;;;;;;;;1.67;100.00;99737.88;5022769;28;20379;-61
2023/03/07 10:14:59;;;;;;;;;;;;;;;1.77;100.00;99733.47;5023501;28;19959;-61
2023/03/07 10:17:43;;;;;;;;;;;;;;;1.84;100.00;99737.16;5026395;28;19917;-61
2023/03/07 10:20:22;;;;;;;;;;;;;;;1.87;100.00;99742.13;5022309;28;20402;-61
2023/03/07 10:23:00;;;;;;;;;;;;;;;1.94;100.00;99734.50;5015055;28;20016;-61
2023/03/07 10:25:31;;;;;;;;;;;;;;;1.98;100.00;99730.66;5019734;28;19920;-61
2023/03/07 10:28:14;;;;;;;;;;;;;;;2.01;100.00;99733.78;5020686;28;19913;-61
2023/03/07 10:30:39;;;;;;;;;;;;;;;2.10;100.00;99746.06;5015721;28;19917;-61
2023/03/07 10:33:06;;;;;;;;;;;;;;;2.17;100.00;99735.81;5012502;28;19924;-61
2023/03/07 10:35:41;;;;;;;;;;;;;;;2.23;100.00;99734.41;5023163;28;19913;-61
2023/03/07 10:38:16;;;;;;;;;;;;;;;2.25;100.00;99735.09;5021542;28;19925;-61
2023/03/07 10:40:45;;;;;;;;;;;;;;;2.26;100.00;99736.75;5015570;28;19926;-61
2023/03/07 10:43:15;;;;;;;;;;;;;;;2.22;100.00;99741.44;5023298;28;20361;-61
2023/03/07 10:45:40;;;;;;;;;;;;;;;2.27;100.00;99735.78;5008139;28;20520;-61
2023/03/07 10:48:08;;;;;;;;;;;;;;;2.30;100.00;99738.09;5012021;28;19914;-61
2023/03/07 10:50:40;;;;;;;;;;;;;;;2.28;100.00;99734.81;5016075;28;19920;-61
2023/03/07 10:53:15;;;;;;;;;;;;;;;2.34;100.00;99731.63;5014605;28;19917;-61
2023/03/07 10:55:41;;;;;;;;;;;;;;;2.33;100.00;99737.84;5027545;28;19956;-61
2023/03/07 10:58:21;;;;;;;;;;;;;;;2.33;100.00;99729.97;5018537;28;20508;-61
2023/03/07 11:00:57;;;;;;;;;;;;;;;2.37;100.00;99736.56;5016826;28;19925;-61
2023/03/07 11:03:24;;;;;;;;;;;;;;;2.37;100.00;99734.78;5016655;28;19924;-61
2023/03/07 11:05:50;;;;;;;;;;;;;;;2.33;100.00;99748.31;5022108;28;19913;-61
2023/03/07 11:08:26;;;;;;;;;;;;;;;2.36;100.00;99745.41;5014834;28;20016;-61
2023/03/07 11:10:52;;;;;;;;;;;;;;;2.35;100.00;99728.03;5015717;28;19913;-61
2023/03/07 11:13:18;;;;;;;;;;;;;;;2.37;100.00;99742.63;5015795;28;20267;-61
2023/03/07 11:15:44;;;;;;;;;;;;;;;2.35;100.00;99738.50;5025120;28;19966;-61
2023/03/07 11:18:24;;;;;;;;;;;;;;;2.30;100.00;99740.72;5025959;28;20336;-61
2023/03/07 11:20:50;;;;;;;;;;;;;;;2.32;100.00;99739.63;5010010;28;19917;-61
2023/03/07 11:23:22;;;;;;;;;;;;;;;2.32;100.00;99731.78;5017657;28;19968;-60
2023/03/07 11:25:48;;;;;;;;;;;;;;;2.37;100.00;99732.16;5021080;28;19920;-61
2023/03/07 11:28:23;;;;;;;;;;;;;;;2.38;100.00;99740.84;5019659;28;19917;-61
2023/03/07 11:30:52;;;;;;;;;;;;;;;2.40;100.00;99731.03;5018339;28;19924;-61
2023/03/07 11:33:24;;;;;;;;;;;;;;;2.36;100.00;99730.50;5020893;28;19987;-60
2023/03/07 11:36:10;;;;;;;;;;;;;;;2.36;100.00;99733.13;5009898;28;19947;-60
2023/03/07 11:38:43;;;;;;;;;;;;;;;2.40;100.00;99736.28;5025422;28;19983;-61
2023/03/07 11:41:08;;;;;;;;;;;;;;;2.39;100.00;99738.06;5025115;28;20436;-61
2023/03/07 11:43:34;;;;;;;;;;;;;;;2.39;100.00;99730.22;5026571;28;20334;-61
2023/03/07 11:46:05;;;;;;;;;;;;;;;2.37;100.00;99733.97;5027555;28;19968;-61
2023/03/07 11:48:30;;;;;;;;;;;;;;;2.40;100.00;99731.03;5029405;28;19921;-61
2023/03/07 11:50:58;;;;;;;;;;;;;;;2.41;100.00;99741.38;5030728;28;19996;-60
2023/03/07 11:53:28;;;;;;;;;;;;;;;2.41;100.00;99732.69;5014131;28;20520;-61
2023/03/07 11:55:59;;;;;;;;;;;;;;;2.38;100.00;99731.19;5025954;28;19917;-61
2023/03/07 11:58:24;;;;;;;;;;;;;;;2.43;100.00;99731.56;5019123;28;19917;-61
2023/03/07 12:00:52;;;;;;;;;;;;;;;2.49;100.00;99732.78;5025004;28;20337;-61
2023/03/07 12:03:25;;;;;;;;;;;;;;;2.56;100.00;99735.63;5021598;28;19924;-61
2023/03/07 12:06:09;;;;;;;;;;;;;;;2.54;100.00;99727.91;5026458;28;19920;-61
2023/03/07 12:08:39;;;;;;;;;;;;;;;2.57;100.00;99718.94;5024691;28;19917;-62
2023/03/07 12:11:05;;;;;;;;;;;;;;;2.58;100.00;99734.50;5021702;28;20516;-60
2023/03/07 12:13:37;;;;;;;;;;;;;;;2.52;100.00;99724.63;5023882;28;19913;-61
2023/03/07 12:16:05;;;;;;;;;;;;;;;2.54;100.00;99727.91;5018831;28;19913;-61
2023/03/07 12:18:55;;;;;;;;;;;;;;;2.58;100.00;99725.81;5019978;28;19920;-61
2023/03/07 12:21:35;;;;;;;;;;;;;;;2.64;100.00;99728.72;4991477;28;19928;-61
2023/03/07 12:24:24;;;;;;;;;;;;;;;2.64;100.00;99728.72;5029877;28;19983;-61
2023/03/07 12:26:53;;;;;;;;;;;;;;;2.64;100.00;99731.31;5019004;28;19983;-61
2023/03/07 12:29:33;;;;;;;;;;;;;;;2.65;100.00;99730.34;5025826;28;20259;-61
2023/03/07 12:32:01;;;;;;;;;;;;;;;2.63;100.00;99734.09;5025634;28;19917;-61
2023/03/07 12:34:33;;;;;;;;;;;;;;;2.65;100.00;99732.97;5021690;28;21446;-61
2023/03/07 12:37:04;;;;;;;;;;;;;;;2.63;100.00;99734.09;5023465;28;20534;-61
2023/03/07 12:39:33;;;;;;;;;;;;;;;2.64;100.00;99735.75;5013305;28;20001;-61
2023/03/07 12:42:17;;;;;;;;;;;;;;;2.66;100.00;99729.38;5015620;28;20351;-61
2023/03/07 12:44:49;;;;;;;;;;;;;;;2.72;100.00;99734.03;5024861;28;20271;-61
2023/03/07 12:47:43;;;;;;;;;;;;;;;2.65;100.00;99746.09;5016621;28;20423;-61